createdAt,value
2019-04-28T00:01:11.454Z,15.81
2019-04-28T00:03:41.946Z,16.04
2019-04-28T00:06:11.757Z,15.91
2019-04-28T00:08:42.880Z,16.04
2019-04-28T00:11:12.666Z,16.15
2019-04-28T00:13:42.298Z,16.20
2019-04-28T00:16:11.909Z,16.22
2019-04-28T00:18:41.920Z,16.29
2019-04-28T00:21:24.563Z,16.39
2019-04-28T00:24:13.057Z,16.25
2019-04-28T00:27:02.711Z,16.25
2019-04-28T00:29:40.372Z,16.23
2019-04-28T00:32:03.802Z,16.12
2019-04-28T00:34:33.487Z,16.29
2019-04-28T00:37:21.942Z,16.12
2019-04-28T00:39:51.574Z,16.05
2019-04-28T00:42:22.740Z,15.99
2019-04-28T00:44:52.527Z,16.17
2019-04-28T00:47:22.158Z,16.23
2019-04-28T00:49:52.074Z,16.14
2019-04-28T00:52:22.361Z,16.17
2019-04-28T00:54:52.769Z,16.36
2019-04-28T00:57:22.638Z,16.01
2019-04-28T00:59:58.191Z,15.86
2019-04-28T01:02:34.582Z,15.87
2019-04-28T01:05:04.439Z,15.93
2019-04-28T01:07:34.035Z,15.83
2019-04-28T01:10:04.231Z,15.76
2019-04-28T01:12:33.819Z,15.64
2019-04-28T01:15:04.862Z,15.70
2019-04-28T01:17:52.231Z,15.72
2019-04-28T01:20:22.712Z,15.61
2019-04-28T01:22:52.308Z,15.51
2019-04-28T01:25:21.939Z,15.86
2019-04-28T01:27:55.548Z,15.59
2019-04-28T01:30:51.225Z,15.36
2019-04-28T01:33:57.937Z,15.47
2019-04-28T01:36:27.664Z,15.39
2019-04-28T01:38:57.234Z,15.37
2019-04-28T01:41:26.877Z,15.42
2019-04-28T01:43:56.527Z,15.41
2019-04-28T01:46:26.139Z,15.46
2019-04-28T01:48:55.756Z,15.56
2019-04-28T01:51:25.498Z,15.65
2019-04-28T01:53:55.169Z,15.61
2019-04-28T01:56:24.729Z,15.55
2019-04-28T01:58:54.423Z,15.49
2019-04-28T02:01:24.025Z,15.50
2019-04-28T02:03:53.712Z,15.57
2019-04-28T02:06:23.300Z,15.63
2019-04-28T02:08:52.939Z,15.64
2019-04-28T02:11:22.731Z,15.54
2019-04-28T02:13:52.360Z,15.45
2019-04-28T02:16:21.959Z,15.37
2019-04-28T02:18:51.607Z,15.38
2019-04-28T02:21:36.796Z,15.40
2019-04-28T02:24:23.885Z,15.43
2019-04-28T02:26:53.755Z,15.52
2019-04-28T02:29:23.397Z,15.68
2019-04-28T02:31:53.153Z,15.36
2019-04-28T02:34:22.729Z,15.52
2019-04-28T02:36:53.812Z,15.60
2019-04-28T02:39:23.951Z,15.23
2019-04-28T02:41:53.533Z,15.19
2019-04-28T02:44:23.763Z,15.12
2019-04-28T02:46:53.378Z,15.27
2019-04-28T02:49:30.677Z,15.16
2019-04-28T02:52:05.692Z,15.36
2019-04-28T02:54:35.306Z,15.61
2019-04-28T02:57:04.993Z,15.42
2019-04-28T02:59:34.562Z,15.31
2019-04-28T03:02:04.374Z,15.35
2019-04-28T03:04:34.048Z,15.49
2019-04-28T03:07:03.830Z,15.51
2019-04-28T03:09:33.431Z,15.54
2019-04-28T03:12:03.149Z,15.60
2019-04-28T03:14:32.744Z,15.62
2019-04-28T03:17:02.370Z,15.65
2019-04-28T03:19:34.200Z,15.62
2019-04-28T03:22:03.480Z,15.55
2019-04-28T03:24:33.049Z,15.55
2019-04-28T03:27:22.596Z,15.73
2019-04-28T03:29:56.549Z,15.37
2019-04-28T03:32:45.777Z,15.74
2019-04-28T03:35:06.697Z,15.87
2019-04-28T03:37:36.387Z,16.07
2019-04-28T03:40:06.328Z,15.81
2019-04-28T03:42:35.980Z,15.76
2019-04-28T03:45:11.244Z,15.92
2019-04-28T03:47:41.075Z,15.76
2019-04-28T03:50:10.737Z,15.82
2019-04-28T03:52:41.513Z,15.73
2019-04-28T03:55:11.888Z,15.78
2019-04-28T03:57:41.760Z,15.79
2019-04-28T04:00:11.620Z,15.76
2019-04-28T04:02:41.447Z,15.76
2019-04-28T04:05:11.403Z,15.85
2019-04-28T04:07:43.285Z,15.87
2019-04-28T04:10:30.655Z,15.91
2019-04-28T04:13:20.073Z,16.01
2019-04-28T04:16:03.805Z,15.98
2019-04-28T04:18:41.613Z,16.05
2019-04-28T04:21:12.077Z,16.05
2019-04-28T04:23:41.802Z,15.88
2019-04-28T04:26:11.950Z,15.91
2019-04-28T04:28:42.053Z,15.84
2019-04-28T04:31:11.767Z,16.04
2019-04-28T04:33:41.669Z,15.97
2019-04-28T04:36:12.065Z,16.15
2019-04-28T04:38:45.903Z,16.32
2019-04-28T04:41:13.018Z,16.20
2019-04-28T04:43:42.668Z,16.23
2019-04-28T04:46:22.073Z,16.34
2019-04-28T04:48:52.155Z,16.38
2019-04-28T04:51:21.977Z,16.60
2019-04-28T04:53:51.872Z,16.51
2019-04-28T04:56:21.810Z,16.53
2019-04-28T04:58:51.622Z,16.56
2019-04-28T05:01:40.778Z,16.50
2019-04-28T05:04:29.723Z,16.70
2019-04-28T05:06:59.745Z,16.54
2019-04-28T05:09:31.118Z,16.63
2019-04-28T05:12:00.884Z,17.02
2019-04-28T05:14:30.514Z,16.70
2019-04-28T05:17:00.832Z,16.82
2019-04-28T05:19:30.537Z,16.73
2019-04-28T05:22:00.237Z,16.59
2019-04-28T05:24:36.672Z,16.96
2019-04-28T05:27:06.416Z,16.77
2019-04-28T05:29:36.032Z,16.70
2019-04-28T05:32:05.625Z,16.76
2019-04-28T05:34:35.204Z,17.02
2019-04-28T05:37:04.825Z,16.91
2019-04-28T05:39:37.682Z,16.79
2019-04-28T05:42:05.854Z,16.79
2019-04-28T05:44:37.605Z,16.71
2019-04-28T05:47:06.877Z,16.63
2019-04-28T05:49:52.379Z,16.79
2019-04-28T05:52:46.948Z,16.89
2019-04-28T05:55:20.457Z,16.92
2019-04-28T05:58:01.411Z,15.76
2019-04-28T06:00:49.893Z,16.93
2019-04-28T06:03:20.085Z,17.17
2019-04-28T06:05:49.777Z,17.14
2019-04-28T06:08:25.491Z,17.13
2019-04-28T06:10:55.136Z,17.10
2019-04-28T06:13:24.878Z,17.12
2019-04-28T06:15:54.656Z,17.22
2019-04-28T06:18:24.409Z,16.42
2019-04-28T06:20:54.006Z,17.36
2019-04-28T06:23:23.731Z,17.25
2019-04-28T06:25:53.316Z,17.45
2019-04-28T06:28:23.013Z,17.28
2019-04-28T06:30:52.604Z,17.35
2019-04-28T06:33:22.202Z,17.32
2019-04-28T06:35:51.892Z,17.40
2019-04-28T06:38:21.500Z,17.48
2019-04-28T06:40:51.107Z,17.59
2019-04-28T06:43:20.735Z,17.45
2019-04-28T06:45:50.330Z,17.60
2019-04-28T06:48:19.975Z,17.63
2019-04-28T06:50:49.549Z,17.65
2019-04-28T06:53:19.225Z,17.81
2019-04-28T06:55:48.991Z,17.64
2019-04-28T06:58:18.614Z,17.50
2019-04-28T07:00:48.192Z,16.88
2019-04-28T07:03:23.325Z,17.63
2019-04-28T07:05:49.268Z,17.81
2019-04-28T07:08:18.908Z,17.93
2019-04-28T07:10:48.489Z,17.88
2019-04-28T07:13:20.597Z,17.92
2019-04-28T07:15:49.497Z,17.75
2019-04-28T07:18:19.113Z,17.92
2019-04-28T07:21:12.692Z,18.17
2019-04-28T07:23:42.327Z,18.22
2019-04-28T07:26:12.056Z,18.30
2019-04-28T07:28:41.716Z,18.38
2019-04-28T07:31:11.442Z,18.29
2019-04-28T07:33:41.042Z,18.42
2019-04-28T07:36:10.689Z,18.40
2019-04-28T07:38:40.457Z,18.23
2019-04-28T07:41:10.187Z,18.36
2019-04-28T07:43:39.920Z,18.33
2019-04-28T07:46:09.513Z,18.33
2019-04-28T07:48:39.145Z,18.42
2019-04-28T07:51:08.883Z,18.54
2019-04-28T07:53:46.900Z,18.47
2019-04-28T07:56:16.616Z,18.79
2019-04-28T07:58:46.243Z,18.32
2019-04-28T08:01:15.816Z,18.78
2019-04-28T08:03:49.702Z,18.87
2019-04-28T08:06:16.816Z,18.68
2019-04-28T08:08:46.484Z,18.79
2019-04-28T08:11:16.417Z,18.96
2019-04-28T08:13:46.228Z,19.00
2019-04-28T08:16:15.956Z,19.14
2019-04-28T08:18:45.550Z,18.12
2019-04-28T08:21:15.181Z,19.05
2019-04-28T08:23:47.394Z,19.14
2019-04-28T08:26:16.107Z,19.40
2019-04-28T08:28:45.749Z,19.55
2019-04-28T08:31:17.034Z,19.44
2019-04-28T08:34:02.185Z,19.20
2019-04-28T08:36:25.031Z,19.18
2019-04-28T08:38:54.616Z,19.36
2019-04-28T08:41:24.200Z,19.28
2019-04-28T08:43:53.842Z,19.52
2019-04-28T08:46:23.553Z,19.83
2019-04-28T08:48:53.120Z,20.20
2019-04-28T08:51:22.684Z,20.08
2019-04-28T08:53:52.291Z,20.23
2019-04-28T08:56:21.952Z,20.07
2019-04-28T08:58:51.873Z,20.03
2019-04-28T09:01:21.523Z,20.12
2019-04-28T09:03:51.125Z,20.19
2019-04-28T09:06:20.812Z,19.97
2019-04-28T09:08:50.488Z,20.09
2019-04-28T09:11:20.153Z,20.11
2019-04-28T09:13:49.698Z,20.39
2019-04-28T09:16:19.299Z,19.89
2019-04-28T09:18:48.940Z,20.37
2019-04-28T09:21:18.522Z,20.12
2019-04-28T09:23:48.146Z,19.92
2019-04-28T09:26:17.730Z,20.05
2019-04-28T09:28:47.386Z,20.12
2019-04-28T09:31:17.063Z,20.52
2019-04-28T09:33:47.150Z,20.08
2019-04-28T09:36:16.872Z,20.38
2019-04-28T09:38:47.072Z,19.94
2019-04-28T09:41:16.741Z,20.12
2019-04-28T09:44:04.228Z,19.94
2019-04-28T09:46:36.597Z,20.46
2019-04-28T09:49:06.392Z,20.64
2019-04-28T09:51:35.976Z,20.85
2019-04-28T09:54:05.796Z,21.14
2019-04-28T09:56:36.139Z,21.81
2019-04-28T09:59:05.887Z,21.82
2019-04-28T10:01:35.576Z,21.38
2019-04-28T10:04:05.302Z,20.98
2019-04-28T10:06:34.940Z,20.77
2019-04-28T10:09:05.851Z,20.99
2019-04-28T10:11:35.565Z,20.14
2019-04-28T10:14:05.226Z,20.84
2019-04-28T10:16:34.851Z,20.95
2019-04-28T10:19:04.516Z,20.98
2019-04-28T10:21:34.169Z,21.22
2019-04-28T10:24:03.767Z,21.28
2019-04-28T10:26:33.483Z,21.43
2019-04-28T10:29:03.116Z,21.54
2019-04-28T10:31:32.776Z,21.55
2019-04-28T10:34:04.080Z,21.75
2019-04-28T10:36:35.333Z,21.72
2019-04-28T10:39:24.378Z,21.47
2019-04-28T10:41:54.237Z,21.52
2019-04-28T10:44:24.791Z,21.20
2019-04-28T10:46:54.618Z,21.39
2019-04-28T10:49:24.256Z,21.91
2019-04-28T10:51:59.588Z,21.74
2019-04-28T10:54:25.233Z,21.72
2019-04-28T10:56:54.855Z,21.95
2019-04-28T10:59:24.610Z,22.63
2019-04-28T11:01:54.205Z,22.76
2019-04-28T11:04:41.453Z,22.31
2019-04-28T11:07:12.161Z,22.09
2019-04-28T11:09:45.035Z,22.65
2019-04-28T11:12:21.143Z,22.94
2019-04-28T11:14:51.196Z,22.57
2019-04-28T11:17:22.079Z,23.02
2019-04-28T11:19:51.925Z,22.74
2019-04-28T11:22:21.637Z,22.97
2019-04-28T11:24:51.240Z,23.51
2019-04-28T11:27:21.016Z,23.08
2019-04-28T11:29:50.722Z,22.89
2019-04-28T11:32:20.373Z,22.53
2019-04-28T11:35:05.420Z,22.65
2019-04-28T11:37:35.061Z,22.65
2019-04-28T11:40:04.791Z,22.07
2019-04-28T11:42:34.396Z,22.20
2019-04-28T11:45:04.782Z,21.77
2019-04-28T11:47:34.433Z,22.29
2019-04-28T11:50:04.275Z,22.37
2019-04-28T11:52:33.963Z,22.60
2019-04-28T11:55:03.630Z,23.12
2019-04-28T11:57:33.360Z,22.89
2019-04-28T12:00:04.603Z,23.30
2019-04-28T12:02:34.334Z,23.53
2019-04-28T12:05:04.117Z,23.98
2019-04-28T12:07:33.739Z,24.21
2019-04-28T12:10:12.674Z,24.10
2019-04-28T12:13:10.691Z,23.50
2019-04-28T12:15:59.010Z,23.06
2019-04-28T12:18:46.073Z,23.20
2019-04-28T12:21:15.746Z,22.86
2019-04-28T12:23:45.380Z,23.69
2019-04-28T12:26:15.043Z,23.74
2019-04-28T12:28:44.736Z,23.52
2019-04-28T12:31:14.419Z,23.42
2019-04-28T12:33:44.032Z,23.83
2019-04-28T12:36:13.667Z,24.12
2019-04-28T12:38:43.308Z,23.60
2019-04-28T12:41:12.967Z,24.35
2019-04-28T12:43:42.614Z,24.30
2019-04-28T12:46:12.297Z,23.89
2019-04-28T12:48:41.980Z,24.21
2019-04-28T12:51:12.083Z,24.41
2019-04-28T12:53:41.693Z,24.24
2019-04-28T12:56:11.458Z,24.08
2019-04-28T12:58:41.080Z,24.30
2019-04-28T13:01:29.620Z,24.31
2019-04-28T13:04:15.106Z,24.51
2019-04-28T13:07:01.935Z,24.81
2019-04-28T13:09:32.031Z,24.99
2019-04-28T13:12:01.778Z,24.71
2019-04-28T13:14:31.395Z,24.76
2019-04-28T13:17:01.042Z,24.88
2019-04-28T13:19:30.670Z,25.08
2019-04-28T13:22:00.384Z,24.99
2019-04-28T13:24:30.083Z,25.10
2019-04-28T13:27:00.656Z,24.99
2019-04-28T13:29:30.400Z,24.47
2019-04-28T13:32:00.040Z,24.54
2019-04-28T13:34:31.565Z,24.79
2019-04-28T13:37:01.254Z,24.86
2019-04-28T13:39:36.414Z,24.61
2019-04-28T13:42:06.378Z,24.38
2019-04-28T13:44:53.876Z,24.92
2019-04-28T13:47:24.026Z,25.10
2019-04-28T13:49:57.387Z,24.29
2019-04-28T13:52:27.102Z,24.14
2019-04-28T13:55:07.083Z,24.11
2019-04-28T13:57:36.739Z,24.24
2019-04-28T14:00:09.399Z,23.82
2019-04-28T14:02:57.902Z,24.08
2019-04-28T14:05:40.564Z,24.18
2019-04-28T14:08:10.284Z,23.79
2019-04-28T14:10:40.027Z,23.89
2019-04-28T14:13:09.651Z,24.73
2019-04-28T14:15:39.279Z,23.88
2019-04-28T14:18:09.012Z,23.77
2019-04-28T14:20:38.752Z,24.16
2019-04-28T14:23:08.472Z,24.41
2019-04-28T14:25:38.151Z,24.54
2019-04-28T14:28:08.073Z,24.09
2019-04-28T14:30:37.741Z,24.12
2019-04-28T14:33:07.465Z,24.10
2019-04-28T14:35:37.118Z,24.33
2019-04-28T14:38:07.077Z,24.18
2019-04-28T14:40:36.717Z,24.20
2019-04-28T14:43:15.744Z,24.41
2019-04-28T14:45:45.563Z,24.47
2019-04-28T14:48:15.285Z,24.45
2019-04-28T14:50:44.960Z,24.02
2019-04-28T14:53:15.845Z,23.79
2019-04-28T14:55:45.566Z,24.43
2019-04-28T14:58:15.169Z,24.65
2019-04-28T15:00:49.342Z,24.92
2019-04-28T15:03:19.038Z,24.49
2019-04-28T15:06:02.888Z,24.65
2019-04-28T15:08:47.845Z,24.35
2019-04-28T15:11:31.131Z,24.47
2019-04-28T15:14:00.945Z,24.08
2019-04-28T15:16:30.691Z,24.13
2019-04-28T15:19:00.349Z,24.10
2019-04-28T15:21:30.112Z,24.14
2019-04-28T15:23:59.785Z,24.11
2019-04-28T15:26:29.398Z,23.99
2019-04-28T15:28:59.114Z,24.07
2019-04-28T15:31:28.751Z,24.05
2019-04-28T15:33:58.407Z,24.12
2019-04-28T15:36:28.372Z,24.72
2019-04-28T15:38:57.957Z,24.46
2019-04-28T15:41:27.699Z,24.80
2019-04-28T15:43:58.099Z,25.04
2019-04-28T15:46:27.866Z,25.04
2019-04-28T15:48:57.573Z,24.79
2019-04-28T15:51:27.369Z,24.73
2019-04-28T15:53:57.020Z,24.52
2019-04-28T15:56:43.305Z,24.42
2019-04-28T15:59:12.974Z,24.81
2019-04-28T16:01:42.795Z,24.63
2019-04-28T16:04:12.517Z,24.43
2019-04-28T16:06:42.124Z,23.84
2019-04-28T16:09:15.208Z,24.08
2019-04-28T16:11:44.823Z,23.52
2019-04-28T16:14:14.586Z,23.33
2019-04-28T16:16:44.234Z,23.25
2019-04-28T16:19:13.936Z,23.25
2019-04-28T16:21:43.625Z,23.22
2019-04-28T16:24:13.295Z,23.08
2019-04-28T16:26:43.082Z,22.96
2019-04-28T16:29:12.933Z,23.16
2019-04-28T16:31:42.727Z,22.86
2019-04-28T16:34:12.431Z,22.78
2019-04-28T16:36:42.211Z,22.66
2019-04-28T16:39:11.950Z,22.72
2019-04-28T16:41:41.642Z,23.16
2019-04-28T16:44:19.746Z,22.88
2019-04-28T16:46:49.392Z,22.60
2019-04-28T16:49:19.168Z,22.36
2019-04-28T16:51:48.794Z,22.28
2019-04-28T16:54:18.492Z,22.20
2019-04-28T16:57:13.124Z,21.98
2019-04-28T16:59:52.938Z,22.16
2019-04-28T17:02:50.519Z,22.16
2019-04-28T17:05:20.324Z,22.33
2019-04-28T17:07:53.178Z,22.25
2019-04-28T17:10:21.508Z,22.02
2019-04-28T17:12:51.278Z,22.04
2019-04-28T17:15:20.949Z,22.14
2019-04-28T17:17:50.573Z,22.09
2019-04-28T17:20:20.187Z,22.01
2019-04-28T17:22:49.922Z,21.31
2019-04-28T17:25:19.597Z,20.39
2019-04-28T17:27:49.253Z,21.06
2019-04-28T17:30:18.924Z,20.99
2019-04-28T17:32:48.687Z,20.96
2019-04-28T17:35:18.372Z,20.81
2019-04-28T17:37:47.976Z,20.63
2019-04-28T17:40:19.606Z,20.61
2019-04-28T17:42:49.211Z,20.55
2019-04-28T17:45:19.831Z,20.46
2019-04-28T17:47:50.631Z,20.35
2019-04-28T17:50:22.046Z,20.35
2019-04-28T17:52:51.734Z,20.12
2019-04-28T17:55:21.453Z,20.07
2019-04-28T17:57:51.237Z,20.02
2019-04-28T18:00:33.306Z,20.08
2019-04-28T18:03:17.014Z,20.04
2019-04-28T18:05:58.488Z,19.24
2019-04-28T18:08:28.173Z,20.05
2019-04-28T18:13:26.320Z,20.05
2019-04-28T18:16:06.851Z,20.04
2019-04-28T18:18:42.501Z,20.10
2019-04-28T18:21:12.096Z,20.19
2019-04-28T18:23:41.904Z,20.26
2019-04-28T18:26:11.602Z,20.12
2019-04-28T18:28:41.242Z,20.05
2019-04-28T18:31:29.806Z,20.02
2019-04-28T18:34:33.510Z,20.16
2019-04-28T18:37:37.446Z,20.29
2019-04-28T18:40:35.439Z,20.08
2019-04-28T18:43:27.177Z,20.16
2019-04-28T18:45:56.755Z,20.15
2019-04-28T18:48:26.465Z,20.23
2019-04-28T18:50:56.079Z,20.30
2019-04-28T18:53:25.710Z,20.10
2019-04-28T18:55:55.600Z,20.07
2019-04-28T18:58:25.266Z,19.93
2019-04-28T19:01:20.033Z,19.84
2019-04-28T19:03:49.683Z,19.94
2019-04-28T19:06:19.708Z,19.87
2019-04-28T19:08:57.498Z,19.81
2019-04-28T19:11:52.071Z,19.93
2019-04-28T19:14:28.802Z,19.75
2019-04-28T19:17:07.692Z,19.72
2019-04-28T19:19:38.198Z,19.76
2019-04-28T19:22:07.946Z,19.50
2019-04-28T19:24:37.639Z,19.38
2019-04-28T19:27:07.274Z,19.33
2019-04-28T19:29:37.032Z,19.35
2019-04-28T19:32:06.657Z,19.22
2019-04-28T19:34:36.311Z,18.22
2019-04-28T19:37:06.001Z,19.36
2019-04-28T19:39:36.205Z,19.49
2019-04-28T19:42:06.232Z,19.47
2019-04-28T19:44:35.871Z,19.30
2019-04-28T19:47:05.492Z,19.47
2019-04-28T19:49:35.161Z,19.44
2019-04-28T19:52:04.874Z,19.38
2019-04-28T19:54:37.883Z,19.37
2019-04-28T19:57:24.525Z,19.38
2019-04-28T20:00:28.089Z,19.39
2019-04-28T20:02:57.667Z,19.17
2019-04-28T20:05:27.315Z,19.07
2019-04-28T20:07:57.030Z,19.10
2019-04-28T20:10:26.609Z,19.14
2019-04-28T20:12:56.242Z,19.06
2019-04-28T20:15:25.866Z,19.31
2019-04-28T20:17:55.452Z,19.38
2019-04-28T20:20:25.038Z,19.20
2019-04-28T20:22:54.824Z,19.09
2019-04-28T20:25:24.567Z,19.30
2019-04-28T20:27:54.164Z,18.92
2019-04-28T20:30:23.755Z,18.52
2019-04-28T20:33:06.184Z,18.66
2019-04-28T20:35:28.639Z,18.34
2019-04-28T20:38:10.914Z,18.11
2019-04-28T20:40:45.755Z,18.12
2019-04-28T20:43:17.490Z,18.29
2019-04-28T20:45:47.084Z,18.48
2019-04-28T20:48:16.718Z,18.68
2019-04-28T20:50:46.376Z,18.76
2019-04-28T20:53:19.149Z,18.64
2019-04-28T20:55:47.379Z,18.65
2019-04-28T20:58:17.026Z,18.83
2019-04-28T21:00:46.647Z,19.00
2019-04-28T21:03:16.342Z,19.03
2019-04-28T21:05:45.916Z,19.16
2019-04-28T21:08:15.645Z,19.23
2019-04-28T21:10:45.210Z,19.40
2019-04-28T21:13:14.932Z,19.15
2019-04-28T21:15:44.554Z,19.13
2019-04-28T21:18:14.266Z,19.11
2019-04-28T21:20:43.900Z,18.64
2019-04-28T21:23:13.487Z,18.36
2019-04-28T21:25:43.058Z,17.97
2019-04-28T21:28:12.620Z,17.88
2019-04-28T21:30:42.261Z,17.86
2019-04-28T21:33:12.435Z,17.61
2019-04-28T21:35:42.047Z,17.79
2019-04-28T21:38:11.646Z,17.66
2019-04-28T21:40:42.411Z,17.62
2019-04-28T21:43:30.909Z,17.62
2019-04-28T21:46:16.650Z,17.57
2019-04-28T21:48:51.696Z,17.82
2019-04-28T21:51:21.426Z,17.86
2019-04-28T21:53:51.006Z,18.04
2019-04-28T21:56:20.598Z,18.12
2019-04-28T21:58:50.182Z,17.85
2019-04-28T22:01:22.650Z,17.52
2019-04-28T22:03:52.335Z,17.51
2019-04-28T22:06:22.021Z,17.44
2019-04-28T22:08:51.790Z,17.60
2019-04-28T22:11:21.415Z,17.46
2019-04-28T22:13:51.091Z,17.43
2019-04-28T22:16:20.731Z,17.35
2019-04-28T22:18:50.337Z,17.48
2019-04-28T22:21:19.965Z,17.82
2019-04-28T22:24:08.417Z,17.59
2019-04-28T22:26:51.727Z,17.34
2019-04-28T22:29:21.472Z,16.93
2019-04-28T22:31:51.141Z,16.82
2019-04-28T22:34:20.715Z,16.91
2019-04-28T22:36:50.339Z,17.06
2019-04-28T22:39:20.117Z,17.11
2019-04-28T22:41:49.713Z,17.15
2019-04-28T22:44:19.306Z,17.38
2019-04-28T22:46:48.894Z,17.36
2019-04-28T22:49:18.706Z,17.37
2019-04-28T22:51:48.261Z,17.32
2019-04-28T22:54:39.778Z,17.34
2019-04-28T22:57:43.411Z,17.18
2019-04-28T23:00:35.437Z,17.12
2019-04-28T23:03:05.798Z,16.93
2019-04-28T23:05:35.376Z,16.79
2019-04-28T23:08:05.140Z,16.79
2019-04-28T23:10:34.750Z,16.62
2019-04-28T23:13:04.449Z,16.52
2019-04-28T23:15:34.131Z,16.15
2019-04-28T23:18:03.945Z,15.95
2019-04-28T23:20:35.443Z,16.03
2019-04-28T23:23:06.298Z,16.17
2019-04-28T23:25:35.887Z,16.24
2019-04-28T23:28:05.721Z,16.27
2019-04-28T23:30:37.943Z,16.40
2019-04-28T23:33:07.490Z,16.61
2019-04-28T23:35:37.180Z,16.69
2019-04-28T23:38:06.872Z,16.73
2019-04-28T23:40:38.540Z,16.63
2019-04-28T23:43:11.874Z,16.61
2019-04-28T23:45:41.458Z,16.70
2019-04-28T23:48:11.039Z,16.87
2019-04-28T23:50:52.789Z,16.77
2019-04-28T23:53:41.304Z,16.81
2019-04-28T23:56:10.891Z,16.77
2019-04-28T23:58:40.560Z,16.85
